Ginys del Meteocat

Dades de l'estació automàtica Tarragona - Complex Educatiu

?
?
Resum diari 22:30 TU
Dades diàries de l'estació meteorològica
Temperatura mitjana 9.4 °C
Temperatura màxima 15.2 °C 12:31 TU
Temperatura mínima 5.3 °C 6:04 TU
Humitat relativa mitjana 85%
Precipitació acumulada 0.0 mm
Ratxa màxima del vent (10 m) 17.6 km/h - 178º 13:57 TU
Pressió atmosfèrica mitjana 1022.2 hPa
Irradiació solar global 9.8 MJ/m2

El tram horari està expressat en Temps Universal (TU). Cal sumar una hora en horari d'hivern i dues en horari d'estiu per passar a l'hora oficial.

Tarragona - Complex Educatiu

Metadades estació meteorol´gica
Municipi Tarragona
Comarca Tarragonès
Altitud 5 m
Data alta 05.02.2009
Estat actual Operativa
Dades de període
Període
TU
TM
°C
TX
°C
TN
°C
HRM
%
PPT
mm
VVM (10 m)
km/h
DVM (10 m)
graus
VVX (10 m)
km/h
PM
hPa
RS
W/m2
00:00 - 00:30 7.0 7.4 6.4 92 0.0 4.0 7 10.1 1023.6 0
00:30 - 01:00 6.4 6.8 6.1 96 0.0 2.5 358 8.6 1023.5 0
01:00 - 01:30 6.7 7.0 6.4 91 0.0 5.4 25 10.8 1023.4 0
01:30 - 02:00 7.0 7.1 6.9 88 0.0 6.8 18 13.0 1023.3 0
02:00 - 02:30 7.0 7.1 6.8 88 0.0 5.8 16 11.5 1023.1 0
02:30 - 03:00 6.4 6.9 6.2 91 0.0 2.5 339 7.2 1023.0 0
03:00 - 03:30 6.3 6.5 6.1 91 0.0 2.5 357 6.8 1022.8 0
03:30 - 04:00 5.9 6.4 5.5 93 0.0 4.3 342 8.6 1022.6 0
04:00 - 04:30 5.8 6.4 5.4 93 0.0 4.7 13 11.5 1022.5 0
04:30 - 05:00 5.9 6.4 5.5 91 0.0 2.9 5 10.1 1022.4 0
05:00 - 05:30 5.9 6.2 5.6 91 0.0 4.7 5 11.5 1022.4 0
05:30 - 06:00 5.8 6.0 5.7 90 0.0 4.0 14 7.9 1022.4 0
06:00 - 06:30 5.5 5.7 5.3 91 0.0 2.9 336 6.8 1022.3 0
06:30 - 07:00 5.5 5.6 5.4 91 0.0 3.6 10 10.8 1022.5 0
07:00 - 07:30 5.8 6.0 5.5 91 0.0 3.6 349 9.0 1022.7 5
07:30 - 08:00 5.9 6.1 5.8 90 0.0 5.4 352 9.7 1022.8 37
08:00 - 08:30 6.6 7.2 5.8 89 0.0 4.0 1 8.3 1022.9 97
08:30 - 09:00 8.1 9.1 7.3 84 0.0 3.2 350 8.3 1022.9 180
09:00 - 09:30 9.7 10.1 9.1 77 0.0 3.2 31 8.6 1023.0 259
09:30 - 10:00 10.6 11.3 9.9 75 0.0 5.4 33 8.6 1023.1 310
10:00 - 10:30 12.5 13.6 11.3 69 0.0 2.9 44 8.3 1023.2 365
10:30 - 11:00 13.6 14.3 13.2 67 0.0 4.7 220 9.4 1023.1 418
11:00 - 11:30 14.0 14.6 13.6 67 0.0 6.8 198 11.5 1022.7 463
11:30 - 12:00 14.2 14.6 13.9 68 0.0 5.8 179 10.8 1022.2 493
12:00 - 12:30 14.4 15.1 13.8 67 0.0 5.8 178 10.8 1021.7 486
12:30 - 13:00 14.6 15.2 14.0 68 0.0 6.8 179 13.0 1021.3 475
13:00 - 13:30 14.3 14.5 14.1 70 0.0 7.9 172 15.8 1021.1 460
13:30 - 14:00 14.2 14.7 13.8 70 0.0 9.7 179 17.6 1020.9 420
14:00 - 14:30 14.0 14.4 13.8 73 0.0 9.0 182 15.5 1020.8 348
14:30 - 15:00 14.1 14.7 13.8 72 0.0 7.2 198 14.0 1020.7 263
15:00 - 15:30 13.9 14.4 13.5 71 0.0 7.9 229 15.8 1020.7 189
15:30 - 16:00 13.3 13.4 13.2 72 0.0 8.3 227 15.1 1020.7 137
16:00 - 16:30 12.8 13.2 12.2 78 0.0 4.7 244 10.1 1020.8 75
16:30 - 17:00 11.8 12.2 11.2 84 0.0 3.2 218 6.8 1020.9 16
17:00 - 17:30 10.2 11.1 9.3 94 0.0 1.1 213 3.6 1020.9 0
17:30 - 18:00 8.9 9.2 8.6 99 0.0 0.4 295 1.4 1021.1 0
18:00 - 18:30 8.6 8.7 8.4 100 0.0 0.4 216 1.8 1021.4 0
18:30 - 19:00 8.4 8.6 8.1 100 0.0 2.2 45 4.3 1021.5 0
19:00 - 19:30 8.6 8.8 8.2 100 0.0 1.4 21 3.6 1021.8 0
19:30 - 20:00 8.5 8.6 8.3 100 0.0 2.9 21 8.6 1022.0 0
20:00 - 20:30 8.9 9.1 8.6 96 0.0 1.8 9 6.8 1022.3 0
20:30 - 21:00 9.2 9.3 9.1 93 0.0 3.6 27 7.2 1022.3 0
21:00 - 21:30 9.3 9.5 9.2 92 0.0 2.5 358 6.5 1022.4 0
21:30 - 22:00 9.2 9.4 9.1 92 0.0 2.5 1 5.8 1022.4 0
22:00 - 22:30 9.4 9.5 9.2 91 0.0 3.2 360 8.6 1022.3 0
22:30 - 23:00 9.3 9.5 9.2 89 0.0 3.2 19 7.6 1022.2 0

Les dades en taronja només han passat un control de qualitat automàtic. Resta pendent la seva validació definitiva.